createdAt,value
2019-02-12T00:04:34.654Z,101468.84
2019-02-12T00:09:38.681Z,101464.52
2019-02-12T00:14:42.725Z,101474.78
2019-02-12T00:19:46.731Z,101466.96
2019-02-12T00:24:50.746Z,101474.08
2019-02-12T00:29:54.730Z,101469.06
2019-02-12T00:34:58.758Z,101472.09
2019-02-12T00:40:02.755Z,101456.69
2019-02-12T00:45:06.821Z,101472.59
2019-02-12T00:50:10.875Z,101475.00
2019-02-12T00:55:14.896Z,101469.41
2019-02-12T01:00:18.881Z,101465.38
2019-02-12T01:05:22.879Z,101478.40
2019-02-12T01:10:26.905Z,101474.99
2019-02-12T01:15:30.911Z,101493.27
2019-02-12T01:20:34.914Z,101483.73
2019-02-12T01:25:38.919Z,101493.84
2019-02-12T01:30:42.936Z,101508.02
2019-02-12T01:35:46.937Z,101522.95
2019-02-12T01:40:50.922Z,101538.51
2019-02-12T01:45:54.920Z,101535.91
2019-02-12T01:50:58.930Z,101538.45
2019-02-12T01:56:02.965Z,101543.89
2019-02-12T02:01:06.992Z,101539.72
2019-02-12T02:06:10.987Z,101548.42
2019-02-12T02:11:15.035Z,101557.03
2019-02-12T02:16:18.982Z,101548.13
2019-02-12T02:21:23.009Z,101551.57
2019-02-12T02:26:27.062Z,101548.95
2019-02-12T02:31:31.069Z,101559.98
2019-02-12T02:36:35.077Z,101561.86
2019-02-12T02:41:39.093Z,101578.89
2019-02-12T02:46:43.161Z,101574.52
2019-02-12T02:51:53.709Z,101584.59
2019-02-12T02:56:52.892Z,101587.33
2019-02-12T03:01:56.879Z,101593.50
2019-02-12T03:07:00.881Z,101578.42
2019-02-12T03:12:04.878Z,101577.70
2019-02-12T03:17:08.926Z,101584.16
2019-02-12T03:22:12.899Z,101598.78
2019-02-12T03:27:16.906Z,101609.16
2019-02-12T03:32:20.924Z,101606.19
2019-02-12T03:37:24.911Z,101628.97
2019-02-12T03:42:28.902Z,101628.47
2019-02-12T03:47:32.937Z,101633.80
2019-02-12T03:52:36.931Z,101641.08
2019-02-12T03:57:40.926Z,101622.38
2019-02-12T04:03:02.057Z,101641.66
2019-02-12T04:08:06.510Z,101643.77
2019-02-12T04:13:10.485Z,101644.83
2019-02-12T04:18:14.480Z,101637.55
2019-02-12T04:23:18.486Z,101643.48
2019-02-12T04:28:23.350Z,101633.59
2019-02-12T04:33:27.360Z,101631.67
2019-02-12T04:38:31.377Z,101640.13
2019-02-12T04:43:35.378Z,101643.80
2019-02-12T04:48:39.409Z,101659.22
2019-02-12T04:53:43.437Z,101660.53
2019-02-12T04:58:47.452Z,101649.15
2019-02-12T05:03:51.456Z,101638.52
2019-02-12T05:09:27.331Z,101649.58
2019-02-12T05:14:31.333Z,101651.11
2019-02-12T05:25:27.757Z,101671.52
2019-02-12T05:30:31.769Z,101685.19
2019-02-12T05:35:38.532Z,101669.59
2019-02-12T05:40:42.521Z,101680.70
2019-02-12T05:45:46.524Z,101701.00
2019-02-12T05:50:50.537Z,101718.20
2019-02-12T05:55:54.518Z,101737.80
2019-02-12T06:00:58.510Z,101746.05
2019-02-12T06:06:02.530Z,101751.15
2019-02-12T06:11:06.546Z,101766.14
2019-02-12T06:16:16.060Z,101772.96
2019-02-12T06:21:20.081Z,101793.38
2019-02-12T06:26:24.148Z,101801.63
2019-02-12T06:31:28.143Z,101798.23
2019-02-12T06:36:32.133Z,101809.84
2019-02-12T06:41:36.229Z,101831.99
2019-02-12T06:46:40.226Z,101838.23
2019-02-12T06:51:44.233Z,101847.63
2019-02-12T06:56:48.255Z,101850.48
2019-02-12T07:01:53.825Z,101857.30
2019-02-12T07:07:47.645Z,101868.06
2019-02-12T07:13:51.235Z,101865.21
2019-02-12T07:19:36.735Z,101884.11
2019-02-12T07:25:26.657Z,101893.30
2019-02-12T07:31:18.161Z,101903.66
2019-02-12T07:36:47.010Z,101912.48
2019-02-12T07:42:15.757Z,101914.30
2019-02-12T07:47:55.819Z,101932.17
2019-02-12T07:53:30.830Z,101937.39
2019-02-12T07:58:46.984Z,101942.17
2019-02-12T08:04:47.266Z,101945.22
2019-02-12T08:10:41.938Z,101946.64
2019-02-12T08:16:27.057Z,101958.27
2019-02-12T08:21:44.070Z,101964.59
2019-02-12T08:27:19.565Z,101971.02
2019-02-12T08:33:22.599Z,101975.31
2019-02-12T08:39:10.297Z,101972.59
2019-02-12T08:44:32.057Z,101989.91
2019-02-12T08:50:01.042Z,102000.50
2019-02-12T08:55:58.184Z,102004.23
2019-02-12T09:01:34.162Z,102010.82
2019-02-12T09:07:37.639Z,102013.21
2019-02-12T09:13:07.237Z,102020.69
2019-02-12T09:18:42.018Z,102026.00
2019-02-12T09:24:28.835Z,102033.36
2019-02-12T09:29:47.234Z,102045.42
2019-02-12T09:35:30.043Z,102043.22
2019-02-12T09:40:57.775Z,102058.30
2019-02-12T09:46:48.765Z,102074.73
2019-02-12T09:52:19.933Z,102091.97
2019-02-12T09:57:53.633Z,102095.89
2019-02-12T10:03:41.961Z,102091.95
2019-02-12T10:09:20.997Z,102111.31
2019-02-12T10:14:51.688Z,102108.97
2019-02-12T10:20:27.969Z,102117.53
2019-02-12T10:25:38.170Z,102128.17
2019-02-12T10:31:08.855Z,102123.20
2019-02-12T10:36:12.862Z,102126.61
2019-02-12T10:41:16.889Z,102137.51
2019-02-12T10:46:20.890Z,102133.94
2019-02-12T10:51:24.889Z,102134.73
2019-02-12T10:56:28.906Z,102140.22
2019-02-12T11:01:32.909Z,102145.83
2019-02-12T11:06:36.916Z,102131.51
2019-02-12T11:11:41.885Z,102135.45
2019-02-12T11:16:45.874Z,102144.10
2019-02-12T11:21:49.918Z,102147.64
2019-02-12T11:26:53.867Z,102147.99
2019-02-12T11:31:57.878Z,102145.88
2019-02-12T11:37:01.895Z,102157.45
2019-02-12T11:42:05.974Z,102167.59
2019-02-12T11:47:10.004Z,102153.71
2019-02-12T11:52:14.019Z,102150.34
2019-02-12T11:57:18.015Z,102152.47
2019-02-12T12:02:23.979Z,102152.99
2019-02-12T12:07:28.050Z,102177.25
2019-02-12T12:12:32.039Z,102164.66
2019-02-12T12:17:36.052Z,102176.98
2019-02-12T12:22:40.057Z,102167.92
2019-02-12T12:27:44.060Z,102171.42
2019-02-12T12:32:48.065Z,102182.36
2019-02-12T12:37:52.076Z,102188.79
2019-02-12T12:42:56.092Z,102184.48
2019-02-12T12:48:00.084Z,102196.14
2019-02-12T12:53:04.163Z,102199.95
2019-02-12T12:58:08.107Z,102205.69
2019-02-12T13:03:13.451Z,102216.95
2019-02-12T13:08:17.599Z,102231.98
2019-02-12T13:13:21.653Z,102223.78
2019-02-12T13:18:25.669Z,102229.32
2019-02-12T13:23:29.663Z,102238.36
2019-02-12T13:28:33.705Z,102245.22
2019-02-12T13:33:37.697Z,102250.67
2019-02-12T13:38:41.714Z,102242.50
2019-02-12T13:43:45.816Z,102242.66
2019-02-12T13:48:50.036Z,102256.94
2019-02-12T13:53:54.032Z,102261.92
2019-02-12T13:58:58.323Z,102290.16
2019-02-12T14:04:03.737Z,102269.58
2019-02-12T14:09:08.206Z,102272.50
2019-02-12T14:14:12.208Z,102274.59
2019-02-12T14:19:16.352Z,102281.23
2019-02-12T14:24:20.375Z,102276.48
2019-02-12T14:29:24.384Z,102280.87
2019-02-12T14:34:28.410Z,102288.16
2019-02-12T14:39:32.392Z,102289.11
2019-02-12T14:44:36.419Z,102295.69
2019-02-12T14:49:40.438Z,102304.59
2019-02-12T14:54:44.469Z,102303.62
2019-02-12T14:59:48.471Z,102316.57
2019-02-12T15:05:00.417Z,102311.20
2019-02-12T15:09:59.988Z,102332.30
2019-02-12T15:15:04.391Z,102336.84
2019-02-12T15:20:08.865Z,102337.48
2019-02-12T15:25:12.914Z,102338.08
2019-02-12T15:30:16.929Z,102342.67
2019-02-12T15:35:20.930Z,102338.61
2019-02-12T15:40:24.972Z,102341.49
2019-02-12T15:45:28.983Z,102339.84
2019-02-12T15:50:32.996Z,102347.90
2019-02-12T15:55:42.146Z,102343.38
2019-02-12T16:00:43.443Z,102317.27
2019-02-12T16:05:47.538Z,102344.31
2019-02-12T16:10:51.560Z,102344.97
2019-02-12T16:15:55.556Z,102348.80
2019-02-12T16:20:59.571Z,102356.91
2019-02-12T16:26:03.816Z,102361.31
2019-02-12T16:31:07.842Z,102363.21
2019-02-12T16:36:11.825Z,102365.15
2019-02-12T16:41:15.852Z,102369.91
2019-02-12T16:46:23.232Z,102380.92
2019-02-12T16:51:27.415Z,102387.23
2019-02-12T16:56:31.426Z,102396.83
2019-02-12T17:01:35.611Z,102404.30
2019-02-12T17:06:39.611Z,102401.51
2019-02-12T17:11:43.654Z,102409.81
2019-02-12T17:16:47.809Z,102422.58
2019-02-12T17:21:51.793Z,102438.28
2019-02-12T17:26:55.819Z,102444.28
2019-02-12T17:31:59.842Z,102438.81
2019-02-12T17:37:04.891Z,102439.50
2019-02-12T17:42:08.936Z,102441.38
2019-02-12T17:47:12.967Z,102451.97
2019-02-12T17:52:16.980Z,102461.52
2019-02-12T17:57:21.006Z,102456.00
2019-02-12T18:02:25.021Z,102458.28
2019-02-12T18:07:29.018Z,102466.72
2019-02-12T18:12:33.045Z,102463.98
2019-02-12T18:17:37.083Z,102469.14
2019-02-12T18:22:41.144Z,102474.16
2019-02-12T18:27:45.177Z,102476.04
2019-02-12T18:32:49.195Z,102470.65
2019-02-12T18:37:53.243Z,102475.67
2019-02-12T18:42:57.303Z,102478.27
2019-02-12T18:48:01.292Z,102477.59
2019-02-12T18:53:05.283Z,102485.58
2019-02-12T18:58:09.353Z,102482.23
2019-02-12T19:03:13.393Z,102484.75
2019-02-12T19:08:17.439Z,102495.64
2019-02-12T19:13:21.500Z,102493.81
2019-02-12T19:18:27.026Z,102500.03
2019-02-12T19:23:31.048Z,102500.54
2019-02-12T19:28:35.073Z,102503.59
2019-02-12T19:33:39.185Z,102508.40
2019-02-12T19:38:43.199Z,102505.42
2019-02-12T19:43:47.232Z,102503.38
2019-02-12T19:48:51.505Z,102501.49
2019-02-12T19:53:55.639Z,102503.09
2019-02-12T19:58:59.761Z,102495.55
2019-02-12T20:04:03.890Z,102491.14
2019-02-12T20:09:14.183Z,102499.88
2019-02-12T20:14:18.407Z,102514.84
2019-02-12T20:19:23.165Z,102512.87
2019-02-12T20:24:27.846Z,102515.05
2019-02-12T20:29:32.573Z,102516.70
2019-02-12T20:34:37.517Z,102511.48
2019-02-12T20:39:42.015Z,102507.61
2019-02-12T20:44:48.478Z,102518.37
2019-02-12T20:49:52.782Z,102514.77
2019-02-12T20:54:57.058Z,102517.41
2019-02-12T21:00:01.267Z,102516.80
2019-02-12T21:05:05.873Z,102516.70
2019-02-12T21:10:11.701Z,102518.03
2019-02-12T21:15:17.941Z,102511.18
2019-02-12T21:20:22.014Z,102508.40
2019-02-12T21:25:26.042Z,102499.09
2019-02-12T21:30:30.145Z,102507.17
2019-02-12T21:35:34.171Z,102511.18
2019-02-12T21:40:38.187Z,102517.01
2019-02-12T21:45:42.203Z,102509.76
2019-02-12T21:50:46.210Z,102507.17
2019-02-12T21:55:50.289Z,102519.36
2019-02-12T22:00:54.290Z,102519.72
2019-02-12T22:05:58.290Z,102514.29
2019-02-12T22:11:02.298Z,102512.11
2019-02-12T22:16:06.298Z,102512.73
2019-02-12T22:21:11.902Z,102528.45
2019-02-12T22:26:15.892Z,102526.63
2019-02-12T22:31:19.899Z,102529.11
2019-02-12T22:36:23.899Z,102528.44
2019-02-12T22:41:27.889Z,102532.19
2019-02-12T22:46:31.903Z,102522.48
2019-02-12T22:51:35.919Z,102519.57
2019-02-12T22:56:39.915Z,102521.19
2019-02-12T23:01:43.930Z,102526.05
2019-02-12T23:06:47.924Z,102530.95
2019-02-12T23:11:52.096Z,102525.02
2019-02-12T23:16:56.075Z,102527.00
2019-02-12T23:22:00.066Z,102516.84
2019-02-12T23:27:04.091Z,102521.33
2019-02-12T23:32:08.074Z,102504.52
2019-02-12T23:37:12.079Z,102507.30
2019-02-12T23:42:16.094Z,102506.84
2019-02-12T23:47:20.098Z,102511.01
2019-02-12T23:52:24.189Z,102508.44
2019-02-12T23:57:28.180Z,102507.08
